sensor_id;sensor_type;location;lat;lon;timestamp;temperature;humidity
49242;DHT22;35079;52.704;13.814;2022-07-29T00:02:03;15.10;99.90
49242;DHT22;35079;52.704;13.814;2022-07-29T00:04:29;14.90;99.90
49242;DHT22;35079;52.704;13.814;2022-07-29T00:06:54;14.90;99.90
49242;DHT22;35079;52.704;13.814;2022-07-29T00:09:20;14.90;99.90
49242;DHT22;35079;52.704;13.814;2022-07-29T00:11:46;15.00;99.90
49242;DHT22;35079;52.704;13.814;2022-07-29T00:14:12;14.90;99.90
49242;DHT22;35079;52.704;13.814;2022-07-29T00:16:38;14.90;99.90
49242;DHT22;35079;52.704;13.814;2022-07-29T00:19:03;14.80;99.90
49242;DHT22;35079;52.704;13.814;2022-07-29T00:21:29;14.80;99.90
49242;DHT22;35079;52.704;13.814;2022-07-29T00:23:55;14.80;99.90
49242;DHT22;35079;52.704;13.814;2022-07-29T00:26:20;14.80;99.90
49242;DHT22;35079;52.704;13.814;2022-07-29T00:28:46;14.90;99.90
49242;DHT22;35079;52.704;13.814;2022-07-29T00:31:12;14.90;99.90
49242;DHT22;35079;52.704;13.814;2022-07-29T00:33:38;14.90;99.90
49242;DHT22;35079;52.704;13.814;2022-07-29T00:36:04;14.90;99.90
49242;DHT22;35079;52.704;13.814;2022-07-29T00:38:29;14.90;99.90
49242;DHT22;35079;52.704;13.814;2022-07-29T00:40:55;14.90;99.90
49242;DHT22;35079;52.704;13.814;2022-07-29T00:43:21;14.90;99.90
49242;DHT22;35079;52.704;13.814;2022-07-29T00:45:47;14.80;99.90
49242;DHT22;35079;52.704;13.814;2022-07-29T00:48:12;14.80;99.90
49242;DHT22;35079;52.704;13.814;2022-07-29T00:50:38;14.90;99.90
49242;DHT22;35079;52.704;13.814;2022-07-29T00:53:06;14.80;99.90
49242;DHT22;35079;52.704;13.814;2022-07-29T00:55:32;14.80;99.90
49242;DHT22;35079;52.704;13.814;2022-07-29T00:57:58;14.90;99.90
49242;DHT22;35079;52.704;13.814;2022-07-29T01:00:26;14.70;99.90
49242;DHT22;35079;52.704;13.814;2022-07-29T01:02:53;14.60;99.90
49242;DHT22;35079;52.704;13.814;2022-07-29T01:05:20;14.60;99.90
49242;DHT22;35079;52.704;13.814;2022-07-29T01:07:49;14.60;99.90
49242;DHT22;35079;52.704;13.814;2022-07-29T01:10:18;14.70;99.90
49242;DHT22;35079;52.704;13.814;2022-07-29T01:12:47;14.80;99.90
49242;DHT22;35079;52.704;13.814;2022-07-29T01:15:13;14.70;99.90
49242;DHT22;35079;52.704;13.814;2022-07-29T01:23:48;14.60;99.90
49242;DHT22;35079;52.704;13.814;2022-07-29T01:26:47;14.60;99.90
49242;DHT22;35079;52.704;13.814;2022-07-29T01:29:26;14.60;99.90
49242;DHT22;35079;52.704;13.814;2022-07-29T01:34:52;14.50;99.90
49242;DHT22;35079;52.704;13.814;2022-07-29T01:37:21;14.40;99.90
49242;DHT22;35079;52.704;13.814;2022-07-29T01:39:52;14.40;99.90
49242;DHT22;35079;52.704;13.814;2022-07-29T01:42:38;14.50;99.90
49242;DHT22;35079;52.704;13.814;2022-07-29T01:48:00;14.40;99.90
49242;DHT22;35079;52.704;13.814;2022-07-29T01:50:46;14.40;99.90
49242;DHT22;35079;52.704;13.814;2022-07-29T01:53:16;14.50;99.90
49242;DHT22;35079;52.704;13.814;2022-07-29T01:55:48;14.40;99.90
49242;DHT22;35079;52.704;13.814;2022-07-29T01:58:17;14.40;99.90
49242;DHT22;35079;52.704;13.814;2022-07-29T02:00:45;14.40;99.90
49242;DHT22;35079;52.704;13.814;2022-07-29T02:03:12;14.30;99.90
49242;DHT22;35079;52.704;13.814;2022-07-29T02:05:41;14.40;99.90
49242;DHT22;35079;52.704;13.814;2022-07-29T02:08:08;14.30;99.90
49242;DHT22;35079;52.704;13.814;2022-07-29T02:10:36;14.40;99.90
49242;DHT22;35079;52.704;13.814;2022-07-29T02:13:04;14.20;99.90
49242;DHT22;35079;52.704;13.814;2022-07-29T02:15:32;14.40;99.90
49242;DHT22;35079;52.704;13.814;2022-07-29T02:18:08;14.30;99.90
49242;DHT22;35079;52.704;13.814;2022-07-29T02:20:35;14.30;99.90
49242;DHT22;35079;52.704;13.814;2022-07-29T02:23:02;14.30;99.90
49242;DHT22;35079;52.704;13.814;2022-07-29T02:25:28;14.30;99.90
49242;DHT22;35079;52.704;13.814;2022-07-29T02:27:55;14.20;99.90
49242;DHT22;35079;52.704;13.814;2022-07-29T02:30:22;14.10;99.90
49242;DHT22;35079;52.704;13.814;2022-07-29T02:32:49;14.20;99.90
49242;DHT22;35079;52.704;13.814;2022-07-29T02:35:17;14.20;99.90
49242;DHT22;35079;52.704;13.814;2022-07-29T02:37:44;14.20;99.90
49242;DHT22;35079;52.704;13.814;2022-07-29T02:40:31;14.30;99.90
49242;DHT22;35079;52.704;13.814;2022-07-29T02:42:58;14.30;99.90
49242;DHT22;35079;52.704;13.814;2022-07-29T02:45:24;14.20;99.90
49242;DHT22;35079;52.704;13.814;2022-07-29T02:47:50;14.10;99.90
49242;DHT22;35079;52.704;13.814;2022-07-29T02:50:32;14.20;99.90
49242;DHT22;35079;52.704;13.814;2022-07-29T02:53:08;14.20;99.90
49242;DHT22;35079;52.704;13.814;2022-07-29T02:55:37;14.10;99.90
49242;DHT22;35079;52.704;13.814;2022-07-29T02:58:15;14.20;99.90
49242;DHT22;35079;52.704;13.814;2022-07-29T03:00:44;14.20;99.90
49242;DHT22;35079;52.704;13.814;2022-07-29T03:03:16;14.20;99.90
49242;DHT22;35079;52.704;13.814;2022-07-29T03:05:43;14.20;99.90
49242;DHT22;35079;52.704;13.814;2022-07-29T03:08:11;14.20;99.90
49242;DHT22;35079;52.704;13.814;2022-07-29T03:10:39;14.30;99.90
49242;DHT22;35079;52.704;13.814;2022-07-29T03:13:05;14.30;99.90
49242;DHT22;35079;52.704;13.814;2022-07-29T03:15:33;14.40;99.90
49242;DHT22;35079;52.704;13.814;2022-07-29T03:17:59;14.50;99.90
49242;DHT22;35079;52.704;13.814;2022-07-29T03:20:26;14.40;99.90
49242;DHT22;35079;52.704;13.814;2022-07-29T03:22:51;14.40;99.90
49242;DHT22;35079;52.704;13.814;2022-07-29T03:25:19;14.50;99.90
49242;DHT22;35079;52.704;13.814;2022-07-29T03:27:46;14.40;99.90
49242;DHT22;35079;52.704;13.814;2022-07-29T03:30:14;14.50;99.90
49242;DHT22;35079;52.704;13.814;2022-07-29T03:32:41;14.50;99.90
49242;DHT22;35079;52.704;13.814;2022-07-29T03:35:07;14.50;99.90
49242;DHT22;35079;52.704;13.814;2022-07-29T03:37:34;14.50;99.90
49242;DHT22;35079;52.704;13.814;2022-07-29T03:40:03;14.60;99.90
49242;DHT22;35079;52.704;13.814;2022-07-29T03:42:36;14.60;99.90
49242;DHT22;35079;52.704;13.814;2022-07-29T03:45:06;14.60;99.90
49242;DHT22;35079;52.704;13.814;2022-07-29T03:47:34;14.60;99.90
49242;DHT22;35079;52.704;13.814;2022-07-29T03:50:05;14.70;99.90
49242;DHT22;35079;52.704;13.814;2022-07-29T03:52:31;14.60;99.90
49242;DHT22;35079;52.704;13.814;2022-07-29T03:54:57;14.70;99.90
49242;DHT22;35079;52.704;13.814;2022-07-29T03:57:28;14.70;99.90
49242;DHT22;35079;52.704;13.814;2022-07-29T04:00:01;14.70;99.90
49242;DHT22;35079;52.704;13.814;2022-07-29T04:02:28;14.70;99.90
49242;DHT22;35079;52.704;13.814;2022-07-29T04:04:54;14.80;99.90
49242;DHT22;35079;52.704;13.814;2022-07-29T04:07:29;14.70;99.90
49242;DHT22;35079;52.704;13.814;2022-07-29T04:09:55;14.80;99.90
49242;DHT22;35079;52.704;13.814;2022-07-29T04:12:38;14.80;99.90
49242;DHT22;35079;52.704;13.814;2022-07-29T04:15:04;14.80;99.90
49242;DHT22;35079;52.704;13.814;2022-07-29T04:17:30;14.90;99.90
49242;DHT22;35079;52.704;13.814;2022-07-29T04:19:59;14.90;99.90
49242;DHT22;35079;52.704;13.814;2022-07-29T04:22:25;14.90;99.90
49242;DHT22;35079;52.704;13.814;2022-07-29T04:24:57;14.90;99.90
49242;DHT22;35079;52.704;13.814;2022-07-29T04:27:33;14.90;99.90
49242;DHT22;35079;52.704;13.814;2022-07-29T04:29:59;14.90;99.90
49242;DHT22;35079;52.704;13.814;2022-07-29T04:32:38;15.00;99.90
49242;DHT22;35079;52.704;13.814;2022-07-29T04:35:04;15.10;99.90
49242;DHT22;35079;52.704;13.814;2022-07-29T04:47:23;15.30;99.90
49242;DHT22;35079;52.704;13.814;2022-07-29T04:53:52;15.40;99.90
49242;DHT22;35079;52.704;13.814;2022-07-29T05:16:49;16.40;99.90
49242;DHT22;35079;52.704;13.814;2022-07-29T05:19:47;16.30;99.90
49242;DHT22;35079;52.704;13.814;2022-07-29T05:22:19;16.50;99.90
49242;DHT22;35079;52.704;13.814;2022-07-29T05:24:50;16.70;99.90
49242;DHT22;35079;52.704;13.814;2022-07-29T05:27:16;16.70;99.90
49242;DHT22;35079;52.704;13.814;2022-07-29T05:29:42;16.90;99.90
49242;DHT22;35079;52.704;13.814;2022-07-29T05:32:07;16.80;99.90
49242;DHT22;35079;52.704;13.814;2022-07-29T05:34:33;16.80;99.90
49242;DHT22;35079;52.704;13.814;2022-07-29T05:36:59;16.80;99.90
49242;DHT22;35079;52.704;13.814;2022-07-29T05:39:28;16.70;99.90
49242;DHT22;35079;52.704;13.814;2022-07-29T05:41:54;16.70;99.90
49242;DHT22;35079;52.704;13.814;2022-07-29T05:44:19;16.70;99.90
49242;DHT22;35079;52.704;13.814;2022-07-29T05:46:48;16.70;99.90
49242;DHT22;35079;52.704;13.814;2022-07-29T05:49:14;16.70;99.90
49242;DHT22;35079;52.704;13.814;2022-07-29T05:51:43;16.70;99.90
49242;DHT22;35079;52.704;13.814;2022-07-29T05:54:08;17.00;99.90
49242;DHT22;35079;52.704;13.814;2022-07-29T05:56:36;17.20;99.90
49242;DHT22;35079;52.704;13.814;2022-07-29T05:59:02;17.20;99.90
49242;DHT22;35079;52.704;13.814;2022-07-29T06:01:28;17.40;99.90
49242;DHT22;35079;52.704;13.814;2022-07-29T06:03:54;17.60;99.90
49242;DHT22;35079;52.704;13.814;2022-07-29T06:06:20;17.80;99.90
49242;DHT22;35079;52.704;13.814;2022-07-29T06:08:48;18.00;99.90
49242;DHT22;35079;52.704;13.814;2022-07-29T06:11:14;17.90;99.90
49242;DHT22;35079;52.704;13.814;2022-07-29T06:13:40;18.00;99.90
49242;DHT22;35079;52.704;13.814;2022-07-29T06:16:05;18.20;99.90
49242;DHT22;35079;52.704;13.814;2022-07-29T06:18:31;18.30;99.90
49242;DHT22;35079;52.704;13.814;2022-07-29T06:20:56;18.30;99.90
49242;DHT22;35079;52.704;13.814;2022-07-29T06:23:22;18.10;99.90
49242;DHT22;35079;52.704;13.814;2022-07-29T06:25:48;18.10;99.90
49242;DHT22;35079;52.704;13.814;2022-07-29T06:28:13;17.90;99.90
49242;DHT22;35079;52.704;13.814;2022-07-29T06:30:39;17.90;99.90
49242;DHT22;35079;52.704;13.814;2022-07-29T06:33:08;17.90;99.90
49242;DHT22;35079;52.704;13.814;2022-07-29T06:35:35;18.10;99.90
49242;DHT22;35079;52.704;13.814;2022-07-29T06:38:02;18.30;99.90
49242;DHT22;35079;52.704;13.814;2022-07-29T06:40:28;18.50;99.90
49242;DHT22;35079;52.704;13.814;2022-07-29T06:43:12;18.50;99.90
49242;DHT22;35079;52.704;13.814;2022-07-29T06:45:38;18.70;99.90
49242;DHT22;35079;52.704;13.814;2022-07-29T06:48:06;18.90;99.90
49242;DHT22;35079;52.704;13.814;2022-07-29T06:50:32;19.00;99.90
49242;DHT22;35079;52.704;13.814;2022-07-29T06:52:57;19.10;99.90
49242;DHT22;35079;52.704;13.814;2022-07-29T06:55:23;19.30;99.90
49242;DHT22;35079;52.704;13.814;2022-07-29T06:57:53;19.50;99.90
49242;DHT22;35079;52.704;13.814;2022-07-29T07:00:30;19.80;99.90
49242;DHT22;35079;52.704;13.814;2022-07-29T07:02:56;19.80;99.40
49242;DHT22;35079;52.704;13.814;2022-07-29T07:05:22;19.80;99.60
49242;DHT22;35079;52.704;13.814;2022-07-29T07:07:47;19.60;98.90
49242;DHT22;35079;52.704;13.814;2022-07-29T07:10:13;19.50;99.90
49242;DHT22;35079;52.704;13.814;2022-07-29T07:12:51;19.60;99.70
49242;DHT22;35079;52.704;13.814;2022-07-29T07:15:16;19.90;99.90
49242;DHT22;35079;52.704;13.814;2022-07-29T07:21:05;20.50;99.90
49242;DHT22;35079;52.704;13.814;2022-07-29T07:23:31;20.80;99.90
49242;DHT22;35079;52.704;13.814;2022-07-29T07:25:57;20.90;99.40
49242;DHT22;35079;52.704;13.814;2022-07-29T07:28:32;21.00;98.60
49242;DHT22;35079;52.704;13.814;2022-07-29T07:34:40;20.70;96.50
49242;DHT22;35079;52.704;13.814;2022-07-29T07:37:09;20.60;98.00
49242;DHT22;35079;52.704;13.814;2022-07-29T07:49:54;20.60;97.50
49242;DHT22;35079;52.704;13.814;2022-07-29T07:55:45;20.80;96.70
49242;DHT22;35079;52.704;13.814;2022-07-29T07:58:11;21.00;97.30
49242;DHT22;35079;52.704;13.814;2022-07-29T08:00:37;21.30;95.90
49242;DHT22;35079;52.704;13.814;2022-07-29T08:03:03;21.70;96.10
49242;DHT22;35079;52.704;13.814;2022-07-29T08:05:28;21.80;95.50
49242;DHT22;35079;52.704;13.814;2022-07-29T08:07:54;22.00;95.50
49242;DHT22;35079;52.704;13.814;2022-07-29T08:10:20;22.10;94.50
49242;DHT22;35079;52.704;13.814;2022-07-29T08:13:06;22.10;93.20
49242;DHT22;35079;52.704;13.814;2022-07-29T08:15:32;22.10;91.50
49242;DHT22;35079;52.704;13.814;2022-07-29T08:17:58;22.20;93.80
49242;DHT22;35079;52.704;13.814;2022-07-29T08:20:23;22.10;91.30
49242;DHT22;35079;52.704;13.814;2022-07-29T08:22:49;22.40;92.30
49242;DHT22;35079;52.704;13.814;2022-07-29T08:25:15;22.20;90.80
49242;DHT22;35079;52.704;13.814;2022-07-29T08:27:40;22.10;91.10
49242;DHT22;35079;52.704;13.814;2022-07-29T08:30:07;22.20;91.20
49242;DHT22;35079;52.704;13.814;2022-07-29T08:32:32;22.30;88.50
49242;DHT22;35079;52.704;13.814;2022-07-29T08:34:58;22.50;89.70
49242;DHT22;35079;52.704;13.814;2022-07-29T08:37:23;22.70;90.10
49242;DHT22;35079;52.704;13.814;2022-07-29T08:39:49;23.00;87.40
49242;DHT22;35079;52.704;13.814;2022-07-29T08:42:15;23.10;88.30
49242;DHT22;35079;52.704;13.814;2022-07-29T08:44:42;23.30;83.50
49242;DHT22;35079;52.704;13.814;2022-07-29T08:47:08;23.50;86.30
49242;DHT22;35079;52.704;13.814;2022-07-29T08:49:34;23.60;84.80
49242;DHT22;35079;52.704;13.814;2022-07-29T08:52:01;23.70;82.30
49242;DHT22;35079;52.704;13.814;2022-07-29T08:54:28;23.90;79.80
49242;DHT22;35079;52.704;13.814;2022-07-29T08:56:54;24.10;79.80
49242;DHT22;35079;52.704;13.814;2022-07-29T08:59:22;24.60;81.40
49242;DHT22;35079;52.704;13.814;2022-07-29T09:01:52;24.90;74.50
49242;DHT22;35079;52.704;13.814;2022-07-29T09:04:19;24.30;74.20
49242;DHT22;35079;52.704;13.814;2022-07-29T09:06:47;24.40;73.60
49242;DHT22;35079;52.704;13.814;2022-07-29T09:09:13;24.50;80.20
49242;DHT22;35079;52.704;13.814;2022-07-29T09:11:40;24.70;75.40
49242;DHT22;35079;52.704;13.814;2022-07-29T09:14:06;25.30;73.10
49242;DHT22;35079;52.704;13.814;2022-07-29T09:16:52;25.10;71.60
49242;DHT22;35079;52.704;13.814;2022-07-29T09:19:33;24.90;69.70
49242;DHT22;35079;52.704;13.814;2022-07-29T09:22:02;25.40;69.90
49242;DHT22;35079;52.704;13.814;2022-07-29T09:24:38;25.60;68.80
49242;DHT22;35079;52.704;13.814;2022-07-29T09:27:25;25.50;65.70
49242;DHT22;35079;52.704;13.814;2022-07-29T09:30:04;26.00;66.90
49242;DHT22;35079;52.704;13.814;2022-07-29T09:32:31;26.60;67.80
49242;DHT22;35079;52.704;13.814;2022-07-29T09:35:20;26.70;62.20
49242;DHT22;35079;52.704;13.814;2022-07-29T09:37:46;26.70;65.40
49242;DHT22;35079;52.704;13.814;2022-07-29T09:40:24;25.90;59.80
49242;DHT22;35079;52.704;13.814;2022-07-29T09:42:51;25.70;63.70
49242;DHT22;35079;52.704;13.814;2022-07-29T09:45:33;25.30;62.30
49242;DHT22;35079;52.704;13.814;2022-07-29T09:48:12;24.40;62.40
49242;DHT22;35079;52.704;13.814;2022-07-29T09:50:39;24.30;65.10
49242;DHT22;35079;52.704;13.814;2022-07-29T09:53:05;24.90;64.10
49242;DHT22;35079;52.704;13.814;2022-07-29T09:55:31;25.70;62.60
49242;DHT22;35079;52.704;13.814;2022-07-29T09:58:20;26.60;60.70
49242;DHT22;35079;52.704;13.814;2022-07-29T10:00:47;27.00;57.30
49242;DHT22;35079;52.704;13.814;2022-07-29T10:03:14;27.40;61.20
49242;DHT22;35079;52.704;13.814;2022-07-29T10:05:41;28.60;56.70
49242;DHT22;35079;52.704;13.814;2022-07-29T10:08:07;29.00;53.20
49242;DHT22;35079;52.704;13.814;2022-07-29T10:10:37;29.10;53.30
49242;DHT22;35079;52.704;13.814;2022-07-29T10:13:06;29.20;51.30
49242;DHT22;35079;52.704;13.814;2022-07-29T10:15:35;29.50;52.90
49242;DHT22;35079;52.704;13.814;2022-07-29T10:18:04;30.10;52.60
49242;DHT22;35079;52.704;13.814;2022-07-29T10:20:31;30.20;50.40
49242;DHT22;35079;52.704;13.814;2022-07-29T10:22:57;29.80;50.30
49242;DHT22;35079;52.704;13.814;2022-07-29T10:25:24;29.50;49.60
49242;DHT22;35079;52.704;13.814;2022-07-29T10:27:50;29.10;49.90
49242;DHT22;35079;52.704;13.814;2022-07-29T10:30:24;28.60;50.20
49242;DHT22;35079;52.704;13.814;2022-07-29T10:33:18;28.10;51.10
49242;DHT22;35079;52.704;13.814;2022-07-29T10:44:06;27.20;52.80
49242;DHT22;35079;52.704;13.814;2022-07-29T10:46:38;26.70;54.00
49242;DHT22;35079;52.704;13.814;2022-07-29T10:51:53;26.80;51.20
49242;DHT22;35079;52.704;13.814;2022-07-29T10:54:40;27.40;52.20
49242;DHT22;35079;52.704;13.814;2022-07-29T10:59:44;28.90;50.70
49242;DHT22;35079;52.704;13.814;2022-07-29T11:02:46;29.30;49.60
49242;DHT22;35079;52.704;13.814;2022-07-29T11:05:17;30.10;48.00
49242;DHT22;35079;52.704;13.814;2022-07-29T11:08:18;30.40;47.90
49242;DHT22;35079;52.704;13.814;2022-07-29T11:10:50;30.90;49.70
49242;DHT22;35079;52.704;13.814;2022-07-29T11:16:07;31.30;45.80
49242;DHT22;35079;52.704;13.814;2022-07-29T11:18:32;31.30;47.70
49242;DHT22;35079;52.704;13.814;2022-07-29T11:20:58;31.50;48.30
49242;DHT22;35079;52.704;13.814;2022-07-29T11:23:32;32.20;48.80
49242;DHT22;35079;52.704;13.814;2022-07-29T11:28:51;32.40;46.40
49242;DHT22;35079;52.704;13.814;2022-07-29T11:31:31;32.30;46.40
49242;DHT22;35079;52.704;13.814;2022-07-29T11:45:10;32.20;45.70
49242;DHT22;35079;52.704;13.814;2022-07-29T11:47:41;32.00;43.80
49242;DHT22;35079;52.704;13.814;2022-07-29T11:50:14;32.00;48.60
49242;DHT22;35079;52.704;13.814;2022-07-29T11:52:46;32.60;46.60
49242;DHT22;35079;52.704;13.814;2022-07-29T11:55:18;32.30;44.50
49242;DHT22;35079;52.704;13.814;2022-07-29T11:57:49;31.40;45.60
49242;DHT22;35079;52.704;13.814;2022-07-29T12:00:27;31.60;44.60
49242;DHT22;35079;52.704;13.814;2022-07-29T12:02:54;31.00;46.10
49242;DHT22;35079;52.704;13.814;2022-07-29T12:05:21;31.00;46.10
49242;DHT22;35079;52.704;13.814;2022-07-29T12:07:48;31.10;46.10
49242;DHT22;35079;52.704;13.814;2022-07-29T12:10:14;31.50;47.20
49242;DHT22;35079;52.704;13.814;2022-07-29T12:12:40;31.20;46.70
49242;DHT22;35079;52.704;13.814;2022-07-29T12:15:17;30.10;48.40
49242;DHT22;35079;52.704;13.814;2022-07-29T12:17:45;29.20;48.20
49242;DHT22;35079;52.704;13.814;2022-07-29T12:20:10;28.90;50.20
49242;DHT22;35079;52.704;13.814;2022-07-29T12:22:39;29.10;51.80
49242;DHT22;35079;52.704;13.814;2022-07-29T12:25:13;29.40;51.30
49242;DHT22;35079;52.704;13.814;2022-07-29T12:27:44;29.40;51.00
49242;DHT22;35079;52.704;13.814;2022-07-29T12:30:12;29.70;52.10
49242;DHT22;35079;52.704;13.814;2022-07-29T12:32:40;30.20;50.90
49242;DHT22;35079;52.704;13.814;2022-07-29T12:35:09;30.60;49.50
49242;DHT22;35079;52.704;13.814;2022-07-29T12:37:36;29.70;49.50
49242;DHT22;35079;52.704;13.814;2022-07-29T12:40:04;29.80;50.80
49242;DHT22;35079;52.704;13.814;2022-07-29T12:42:30;29.40;50.30
49242;DHT22;35079;52.704;13.814;2022-07-29T12:44:55;29.40;51.70
49242;DHT22;35079;52.704;13.814;2022-07-29T12:47:22;30.00;50.60
49242;DHT22;35079;52.704;13.814;2022-07-29T12:49:49;30.00;54.30
49242;DHT22;35079;52.704;13.814;2022-07-29T12:52:27;30.20;50.30
49242;DHT22;35079;52.704;13.814;2022-07-29T12:54:53;29.60;50.20
49242;DHT22;35079;52.704;13.814;2022-07-29T12:57:19;29.50;50.90
49242;DHT22;35079;52.704;13.814;2022-07-29T12:59:58;29.80;52.40
49242;DHT22;35079;52.704;13.814;2022-07-29T13:02:23;29.60;52.40
49242;DHT22;35079;52.704;13.814;2022-07-29T13:04:57;29.90;50.60
49242;DHT22;35079;52.704;13.814;2022-07-29T13:07:24;29.00;52.90
49242;DHT22;35079;52.704;13.814;2022-07-29T13:09:49;29.10;52.80
49242;DHT22;35079;52.704;13.814;2022-07-29T13:12:15;29.10;51.10
49242;DHT22;35079;52.704;13.814;2022-07-29T13:14:48;28.90;51.90
49242;DHT22;35079;52.704;13.814;2022-07-29T13:19:52;29.30;51.00
49242;DHT22;35079;52.704;13.814;2022-07-29T13:22:20;29.50;50.90
49242;DHT22;35079;52.704;13.814;2022-07-29T13:27:17;30.10;49.50
49242;DHT22;35079;52.704;13.814;2022-07-29T13:29:43;30.10;48.30
49242;DHT22;35079;52.704;13.814;2022-07-29T13:32:09;30.10;49.60
49242;DHT22;35079;52.704;13.814;2022-07-29T13:34:34;30.50;49.60
49242;DHT22;35079;52.704;13.814;2022-07-29T13:37:00;29.90;48.50
49242;DHT22;35079;52.704;13.814;2022-07-29T13:39:26;29.90;48.90
49242;DHT22;35079;52.704;13.814;2022-07-29T13:41:51;29.40;49.10
49242;DHT22;35079;52.704;13.814;2022-07-29T13:44:17;29.50;51.10
49242;DHT22;35079;52.704;13.814;2022-07-29T13:46:43;28.80;50.00
49242;DHT22;35079;52.704;13.814;2022-07-29T13:49:09;28.60;52.00
49242;DHT22;35079;52.704;13.814;2022-07-29T13:51:36;28.50;52.20
49242;DHT22;35079;52.704;13.814;2022-07-29T13:54:02;28.40;51.60
49242;DHT22;35079;52.704;13.814;2022-07-29T13:56:28;28.40;54.60
49242;DHT22;35079;52.704;13.814;2022-07-29T13:58:53;28.90;51.40
49242;DHT22;35079;52.704;13.814;2022-07-29T14:01:19;29.30;50.40
49242;DHT22;35079;52.704;13.814;2022-07-29T14:03:45;29.10;52.60
49242;DHT22;35079;52.704;13.814;2022-07-29T14:06:10;29.00;50.90
49242;DHT22;35079;52.704;13.814;2022-07-29T14:08:36;28.90;49.80
49242;DHT22;35079;52.704;13.814;2022-07-29T14:11:01;28.80;51.40
49242;DHT22;35079;52.704;13.814;2022-07-29T14:13:27;28.40;50.70
49242;DHT22;35079;52.704;13.814;2022-07-29T14:15:53;28.50;51.30
49242;DHT22;35079;52.704;13.814;2022-07-29T14:18:18;28.40;52.40
49242;DHT22;35079;52.704;13.814;2022-07-29T14:20:44;28.10;50.90
49242;DHT22;35079;52.704;13.814;2022-07-29T14:23:09;28.30;53.80
49242;DHT22;35079;52.704;13.814;2022-07-29T14:25:35;28.40;51.70
49242;DHT22;35079;52.704;13.814;2022-07-29T14:28:01;28.40;52.40
49242;DHT22;35079;52.704;13.814;2022-07-29T14:30:26;28.50;53.00
49242;DHT22;35079;52.704;13.814;2022-07-29T14:32:52;28.50;52.20
49242;DHT22;35079;52.704;13.814;2022-07-29T14:35:18;28.00;52.10
49242;DHT22;35079;52.704;13.814;2022-07-29T14:37:43;28.10;51.30
49242;DHT22;35079;52.704;13.814;2022-07-29T14:40:10;27.90;51.50
49242;DHT22;35079;52.704;13.814;2022-07-29T14:42:36;27.70;51.70
49242;DHT22;35079;52.704;13.814;2022-07-29T14:45:04;27.20;53.70
49242;DHT22;35079;52.704;13.814;2022-07-29T14:47:30;27.10;53.20
49242;DHT22;35079;52.704;13.814;2022-07-29T14:49:55;27.20;52.60
49242;DHT22;35079;52.704;13.814;2022-07-29T14:52:21;27.10;52.70
49242;DHT22;35079;52.704;13.814;2022-07-29T14:54:46;26.90;53.70
49242;DHT22;35079;52.704;13.814;2022-07-29T14:57:12;26.80;53.40
49242;DHT22;35079;52.704;13.814;2022-07-29T14:59:37;26.80;54.70
49242;DHT22;35079;52.704;13.814;2022-07-29T15:02:03;26.80;55.70
49242;DHT22;35079;52.704;13.814;2022-07-29T15:04:29;27.10;56.10
49242;DHT22;35079;52.704;13.814;2022-07-29T15:06:54;26.90;53.50
49242;DHT22;35079;52.704;13.814;2022-07-29T15:09:20;26.80;53.80
49242;DHT22;35079;52.704;13.814;2022-07-29T15:11:45;26.80;52.60
49242;DHT22;35079;52.704;13.814;2022-07-29T15:14:11;26.70;53.20
49242;DHT22;35079;52.704;13.814;2022-07-29T15:16:38;26.50;53.30
49242;DHT22;35079;52.704;13.814;2022-07-29T15:19:05;26.50;54.90
49242;DHT22;35079;52.704;13.814;2022-07-29T15:21:31;26.40;54.00
49242;DHT22;35079;52.704;13.814;2022-07-29T15:23:57;26.20;54.50
49242;DHT22;35079;52.704;13.814;2022-07-29T15:26:22;26.10;53.10
49242;DHT22;35079;52.704;13.814;2022-07-29T15:28:48;26.20;55.00
49242;DHT22;35079;52.704;13.814;2022-07-29T15:31:14;26.40;54.50
49242;DHT22;35079;52.704;13.814;2022-07-29T15:33:39;26.40;55.10
49242;DHT22;35079;52.704;13.814;2022-07-29T15:36:05;26.40;52.90
49242;DHT22;35079;52.704;13.814;2022-07-29T15:38:31;26.30;53.30
49242;DHT22;35079;52.704;13.814;2022-07-29T15:40:56;26.30;54.50
49242;DHT22;35079;52.704;13.814;2022-07-29T15:43:22;26.30;54.00
49242;DHT22;35079;52.704;13.814;2022-07-29T15:45:48;26.00;54.10
49242;DHT22;35079;52.704;13.814;2022-07-29T15:48:33;26.10;54.70
49242;DHT22;35079;52.704;13.814;2022-07-29T15:50:59;26.00;53.80
49242;DHT22;35079;52.704;13.814;2022-07-29T15:53:25;26.20;54.80
49242;DHT22;35079;52.704;13.814;2022-07-29T15:55:51;26.30;54.50
49242;DHT22;35079;52.704;13.814;2022-07-29T15:58:16;26.30;53.50
49242;DHT22;35079;52.704;13.814;2022-07-29T16:00:42;26.40;53.30
49242;DHT22;35079;52.704;13.814;2022-07-29T16:03:08;26.10;52.80
49242;DHT22;35079;52.704;13.814;2022-07-29T16:05:34;26.10;53.30
49242;DHT22;35079;52.704;13.814;2022-07-29T16:07:59;26.10;53.10
49242;DHT22;35079;52.704;13.814;2022-07-29T16:10:25;26.00;53.30
49242;DHT22;35079;52.704;13.814;2022-07-29T16:12:51;26.00;53.60
49242;DHT22;35079;52.704;13.814;2022-07-29T16:15:16;26.20;53.30
49242;DHT22;35079;52.704;13.814;2022-07-29T16:17:42;26.00;53.50
49242;DHT22;35079;52.704;13.814;2022-07-29T16:20:08;26.00;53.40
49242;DHT22;35079;52.704;13.814;2022-07-29T16:22:34;26.00;55.20
49242;DHT22;35079;52.704;13.814;2022-07-29T16:25:00;26.10;55.60
49242;DHT22;35079;52.704;13.814;2022-07-29T16:27:26;26.00;54.10
49242;DHT22;35079;52.704;13.814;2022-07-29T16:29:55;25.90;55.10
49242;DHT22;35079;52.704;13.814;2022-07-29T16:32:21;25.90;52.90
49242;DHT22;35079;52.704;13.814;2022-07-29T16:34:47;25.90;52.90
49242;DHT22;35079;52.704;13.814;2022-07-29T16:37:12;25.70;53.50
49242;DHT22;35079;52.704;13.814;2022-07-29T16:39:39;25.80;53.90
49242;DHT22;35079;52.704;13.814;2022-07-29T16:42:05;25.70;53.40
49242;DHT22;35079;52.704;13.814;2022-07-29T16:44:31;25.70;53.80
49242;DHT22;35079;52.704;13.814;2022-07-29T16:46:57;25.60;53.90
49242;DHT22;35079;52.704;13.814;2022-07-29T16:49:22;25.70;54.30
49242;DHT22;35079;52.704;13.814;2022-07-29T16:51:48;25.70;54.20
49242;DHT22;35079;52.704;13.814;2022-07-29T16:54:14;25.70;55.70
49242;DHT22;35079;52.704;13.814;2022-07-29T16:56:39;25.70;54.60
49242;DHT22;35079;52.704;13.814;2022-07-29T16:59:05;25.60;53.60
49242;DHT22;35079;52.704;13.814;2022-07-29T17:01:31;25.60;54.50
49242;DHT22;35079;52.704;13.814;2022-07-29T17:03:56;25.50;53.20
49242;DHT22;35079;52.704;13.814;2022-07-29T17:06:39;25.50;54.50